createdAt,value
2022-09-02T00:00:20.685Z,66.33
2022-09-02T00:03:27.001Z,66.48
2022-09-02T00:06:34.395Z,66.64
2022-09-02T00:09:40.813Z,66.60
2022-09-02T00:12:48.988Z,66.17
2022-09-02T00:15:55.065Z,66.25
2022-09-02T00:19:00.901Z,66.54
2022-09-02T00:22:07.541Z,67.17
2022-09-02T00:25:14.604Z,67.03
2022-09-02T00:28:25.915Z,66.69
2022-09-02T00:31:33.916Z,66.81
2022-09-02T00:34:39.479Z,66.81
2022-09-02T00:37:45.293Z,67.34
2022-09-02T00:40:54.188Z,67.31
2022-09-02T00:44:06.520Z,67.16
2022-09-02T00:47:12.246Z,67.01
2022-09-02T00:50:26.036Z,67.65
2022-09-02T00:53:33.813Z,67.68
2022-09-02T00:56:43.425Z,67.64
2022-09-02T01:00:13.919Z,68.44
2022-09-02T01:03:24.855Z,68.33
2022-09-02T01:06:33.632Z,68.59
2022-09-02T01:09:39.544Z,68.38
2022-09-02T01:12:45.836Z,68.58
2022-09-02T01:16:01.596Z,68.70
2022-09-02T01:19:23.205Z,68.66
2022-09-02T01:22:35.842Z,68.97
2022-09-02T01:25:41.607Z,68.30
2022-09-02T01:28:47.494Z,68.67
2022-09-02T01:31:56.152Z,68.32
2022-09-02T01:35:02.283Z,68.50
2022-09-02T01:38:12.189Z,68.86
2022-09-02T01:41:17.830Z,68.67
2022-09-02T01:44:25.281Z,68.51
2022-09-02T01:47:32.148Z,68.11
2022-09-02T01:50:45.604Z,68.26
2022-09-02T01:53:58.784Z,67.65
2022-09-02T01:57:04.832Z,67.96
2022-09-02T02:00:20.031Z,67.44
2022-09-02T02:03:26.197Z,68.23
2022-09-02T02:06:36.561Z,67.95
2022-09-02T02:09:46.427Z,68.31
2022-09-02T02:12:54.915Z,67.97
2022-09-02T02:16:09.398Z,67.84
2022-09-02T02:19:19.776Z,68.16
2022-09-02T02:22:27.436Z,67.93
2022-09-02T02:25:36.566Z,67.78
2022-09-02T02:28:42.461Z,67.84
2022-09-02T02:31:54.820Z,67.49
2022-09-02T02:35:04.622Z,68.34
2022-09-02T02:38:14.317Z,67.79
2022-09-02T02:41:24.396Z,67.83
2022-09-02T02:44:30.130Z,67.63
2022-09-02T02:47:35.766Z,67.31
2022-09-02T02:50:42.553Z,67.43
2022-09-02T02:53:59.000Z,67.61
2022-09-02T02:57:14.798Z,67.55
2022-09-02T03:00:27.287Z,67.39
2022-09-02T03:03:33.615Z,67.83
2022-09-02T03:06:40.149Z,68.15
2022-09-02T03:09:46.097Z,68.02
2022-09-02T03:12:54.539Z,68.46
2022-09-02T03:16:00.322Z,68.64
2022-09-02T03:19:08.694Z,68.19
2022-09-02T03:22:14.429Z,68.64
2022-09-02T03:25:23.886Z,68.84
2022-09-02T03:28:38.017Z,68.77
2022-09-02T03:31:46.321Z,68.93
2022-09-02T03:34:52.549Z,69.10
2022-09-02T03:37:59.663Z,69.24
2022-09-02T03:41:05.333Z,69.39
2022-09-02T03:44:16.775Z,68.67
2022-09-02T03:47:29.151Z,68.84
2022-09-02T03:50:42.318Z,68.32
2022-09-02T03:53:51.820Z,68.07
2022-09-02T03:56:57.548Z,67.89
2022-09-02T04:00:16.219Z,68.32
2022-09-02T04:03:25.228Z,67.67
2022-09-02T04:06:32.700Z,67.55
2022-09-02T04:09:46.458Z,67.74
2022-09-02T04:12:53.194Z,67.46
2022-09-02T04:16:11.291Z,67.87
2022-09-02T04:19:17.096Z,67.77
2022-09-02T04:22:28.556Z,67.56
2022-09-02T04:25:36.730Z,67.50
2022-09-02T04:28:43.113Z,67.84
2022-09-02T04:31:51.332Z,67.71
2022-09-02T04:34:57.099Z,67.45
2022-09-02T04:38:03.700Z,67.87
2022-09-02T04:41:12.424Z,67.76
2022-09-02T04:44:18.560Z,67.60
2022-09-02T04:47:29.119Z,67.44
2022-09-02T04:50:35.525Z,67.73
2022-09-02T04:53:42.712Z,67.40
2022-09-02T04:56:48.525Z,67.21
2022-09-02T04:59:55.158Z,67.51
2022-09-02T05:03:05.569Z,67.40
2022-09-02T05:06:17.372Z,65.94
2022-09-02T05:09:38.924Z,62.92
2022-09-02T05:12:46.312Z,58.95
2022-09-02T05:15:52.701Z,56.36
2022-09-02T05:19:14.678Z,53.92
2022-09-02T05:22:29.672Z,52.87
2022-09-02T05:25:40.510Z,50.68
2022-09-02T05:28:47.641Z,48.72
2022-09-02T05:31:53.908Z,46.93
2022-09-02T05:35:04.660Z,45.35
2022-09-02T05:38:12.219Z,43.42
2022-09-02T05:41:26.122Z,43.84
2022-09-02T05:44:36.146Z,43.37
2022-09-02T05:47:43.205Z,42.06
2022-09-02T05:50:57.625Z,41.41
2022-09-02T05:54:18.950Z,40.92
2022-09-02T05:57:27.424Z,40.59
2022-09-02T06:00:42.339Z,39.57
2022-09-02T06:03:50.695Z,39.29
2022-09-02T06:06:59.067Z,38.63
2022-09-02T06:10:17.423Z,38.21
2022-09-02T06:13:45.892Z,37.31
2022-09-02T06:16:54.296Z,36.15
2022-09-02T06:20:10.822Z,36.06
2022-09-02T06:23:22.392Z,36.07
2022-09-02T06:26:28.203Z,37.14
2022-09-02T06:29:35.244Z,36.15
2022-09-02T06:32:40.876Z,36.58
2022-09-02T06:35:49.757Z,37.62
2022-09-02T06:39:03.047Z,37.51
2022-09-02T06:42:11.668Z,37.21
2022-09-02T06:45:26.487Z,36.21
2022-09-02T06:48:34.362Z,35.49
2022-09-02T06:51:43.959Z,34.87
2022-09-02T06:54:55.695Z,35.13
2022-09-02T06:58:01.312Z,36.40
2022-09-02T07:01:29.147Z,36.90
2022-09-02T07:04:53.152Z,37.45
2022-09-02T07:08:02.087Z,37.38
2022-09-02T07:11:22.436Z,38.78
2022-09-02T07:14:30.880Z,38.43
2022-09-02T07:17:39.365Z,37.91
2022-09-02T07:20:50.635Z,37.86
2022-09-02T07:23:56.940Z,38.13
2022-09-02T07:27:06.108Z,36.67
2022-09-02T07:30:15.261Z,35.63
2022-09-02T07:33:24.077Z,36.58
2022-09-02T07:36:31.514Z,35.65
2022-09-02T07:39:38.460Z,37.59
2022-09-02T07:42:47.558Z,35.77
2022-09-02T07:45:57.518Z,35.27
2022-09-02T07:49:11.129Z,34.85
2022-09-02T07:52:17.188Z,34.36
2022-09-02T07:55:31.237Z,34.39
2022-09-02T07:58:40.958Z,35.10
2022-09-02T08:01:48.447Z,34.90
2022-09-02T08:04:55.716Z,34.67
2022-09-02T08:08:03.124Z,33.22
2022-09-02T08:11:09.489Z,33.42
2022-09-02T08:14:29.582Z,33.93
2022-09-02T08:17:35.943Z,34.31
2022-09-02T08:20:41.838Z,33.53
2022-09-02T08:23:50.420Z,33.46
2022-09-02T08:26:56.129Z,33.45
2022-09-02T08:30:10.526Z,33.61
2022-09-02T08:33:30.181Z,32.96
2022-09-02T08:36:48.944Z,33.45
2022-09-02T08:40:03.789Z,32.80
2022-09-02T08:43:38.560Z,33.28
2022-09-02T08:46:47.273Z,32.38
2022-09-02T08:50:00.873Z,31.88
2022-09-02T08:53:31.569Z,33.91
2022-09-02T08:56:41.033Z,34.45
2022-09-02T08:59:48.656Z,37.17
2022-09-02T09:03:23.063Z,38.20
2022-09-02T09:06:57.142Z,40.30
2022-09-02T09:10:28.681Z,40.58
2022-09-02T09:14:23.568Z,42.63
2022-09-02T09:17:40.548Z,42.95
2022-09-02T09:20:53.253Z,42.98
2022-09-02T09:24:24.631Z,43.14
2022-09-02T09:27:30.216Z,43.50
2022-09-02T09:30:35.838Z,44.00
2022-09-02T09:33:41.933Z,42.70
2022-09-02T09:36:57.145Z,42.63
2022-09-02T09:40:09.778Z,42.49
2022-09-02T09:43:18.229Z,40.88
2022-09-02T09:46:31.233Z,40.79
2022-09-02T09:49:37.045Z,40.57
2022-09-02T09:52:46.025Z,40.94
2022-09-02T09:56:01.892Z,41.53
2022-09-02T09:59:32.307Z,41.67
2022-09-02T10:02:39.367Z,41.08
2022-09-02T10:05:45.605Z,40.36
2022-09-02T10:09:01.580Z,41.31
2022-09-02T10:12:10.485Z,41.22
2022-09-02T10:15:22.865Z,42.22
2022-09-02T10:18:43.219Z,41.71
2022-09-02T10:22:39.497Z,42.37
2022-09-02T10:30:05.257Z,41.86
2022-09-02T10:33:39.537Z,38.63
2022-09-02T10:37:15.014Z,37.50
2022-09-02T10:40:39.123Z,35.15
2022-09-02T10:44:15.542Z,35.65
2022-09-02T10:47:39.191Z,36.05
2022-09-02T10:51:08.305Z,36.90
2022-09-02T10:54:48.611Z,34.46
2022-09-02T10:58:03.468Z,35.61
2022-09-02T11:01:27.285Z,32.80
2022-09-02T11:04:46.346Z,31.38
2022-09-02T11:08:04.610Z,31.20
2022-09-02T11:11:21.856Z,30.85
2022-09-02T11:14:47.557Z,30.49
2022-09-02T11:18:17.503Z,31.57
2022-09-02T11:21:46.718Z,30.76
2022-09-02T11:25:07.594Z,31.67
2022-09-02T11:28:36.322Z,32.42
2022-09-02T11:31:54.939Z,33.33
2022-09-02T11:35:13.189Z,34.98
2022-09-02T11:38:41.902Z,35.56
2022-09-02T11:42:09.698Z,35.99
2022-09-02T11:45:57.744Z,35.67
2022-09-02T11:49:49.111Z,35.50
2022-09-02T11:53:21.104Z,35.47
2022-09-02T11:56:39.983Z,34.83
2022-09-02T12:00:32.655Z,35.09
2022-09-02T12:03:58.666Z,34.76
2022-09-02T12:07:29.972Z,35.19
2022-09-02T12:11:06.907Z,35.42
2022-09-02T12:14:35.963Z,33.30
2022-09-02T12:18:12.610Z,32.80
2022-09-02T12:21:23.346Z,33.76
2022-09-02T12:24:29.262Z,33.84
2022-09-02T12:27:42.831Z,32.67
2022-09-02T12:31:18.104Z,34.48
2022-09-02T12:34:59.532Z,33.89
2022-09-02T12:38:29.715Z,32.98
2022-09-02T12:41:47.740Z,32.37
2022-09-02T12:45:13.134Z,29.23
2022-09-02T12:48:38.538Z,28.69
2022-09-02T12:52:02.789Z,28.30
2022-09-02T12:55:21.705Z,28.15
2022-09-02T12:58:29.705Z,28.54
2022-09-02T13:05:40.532Z,29.37
2022-09-02T13:09:34.578Z,30.78
2022-09-02T13:13:28.614Z,31.22
2022-09-02T13:16:51.819Z,31.25
2022-09-02T13:20:44.710Z,32.15
2022-09-02T13:24:40.886Z,32.72
2022-09-02T13:28:39.171Z,32.41
2022-09-02T13:32:05.272Z,33.52
2022-09-02T13:35:24.038Z,33.41
2022-09-02T13:38:33.589Z,34.07
2022-09-02T13:41:39.137Z,34.71
2022-09-02T13:44:44.745Z,34.13
2022-09-02T13:47:58.139Z,34.55
2022-09-02T13:51:16.412Z,33.55
2022-09-02T13:54:35.206Z,33.59
2022-09-02T13:57:41.935Z,32.91
2022-09-02T14:00:49.844Z,33.17
2022-09-02T14:04:02.097Z,33.31
2022-09-02T14:07:12.003Z,34.24
2022-09-02T14:10:23.510Z,33.96
2022-09-02T14:13:29.697Z,32.33
2022-09-02T14:16:39.281Z,32.34
2022-09-02T14:19:49.155Z,33.05
2022-09-02T14:23:10.917Z,32.50
2022-09-02T14:26:31.768Z,34.33
2022-09-02T14:29:48.602Z,33.32
2022-09-02T14:33:39.644Z,33.01
2022-09-02T14:36:45.478Z,33.27
2022-09-02T14:40:11.737Z,33.15
2022-09-02T14:43:20.390Z,34.04
2022-09-02T14:46:37.370Z,34.75
2022-09-02T14:49:55.745Z,35.37
2022-09-02T14:53:14.661Z,35.66
2022-09-02T14:56:48.778Z,35.45
2022-09-02T14:59:56.193Z,35.70
2022-09-02T15:03:02.406Z,35.09
2022-09-02T15:06:17.722Z,34.38
2022-09-02T15:09:31.705Z,35.19
2022-09-02T15:12:45.670Z,35.19
2022-09-02T15:15:53.180Z,35.10
2022-09-02T15:18:59.553Z,35.90
2022-09-02T15:22:14.255Z,36.56
2022-09-02T15:25:32.216Z,36.96
2022-09-02T15:28:41.139Z,37.07
2022-09-02T15:31:46.677Z,37.59
2022-09-02T15:34:52.407Z,38.16
2022-09-02T15:38:08.817Z,37.81
2022-09-02T15:41:17.947Z,38.08
2022-09-02T15:44:26.709Z,38.15
2022-09-02T15:47:32.651Z,38.47
2022-09-02T15:50:38.258Z,38.86
2022-09-02T15:53:49.297Z,38.52
2022-09-02T15:57:00.339Z,38.23
2022-09-02T16:00:11.505Z,38.00
2022-09-02T16:03:25.808Z,38.07
2022-09-02T16:06:32.085Z,38.58
2022-09-02T16:09:40.435Z,38.05
2022-09-02T16:12:46.063Z,38.10
2022-09-02T16:15:53.981Z,38.19
2022-09-02T16:19:00.183Z,38.27
2022-09-02T16:22:05.908Z,38.21
2022-09-02T16:25:15.786Z,38.87
2022-09-02T16:28:22.285Z,38.23
2022-09-02T16:31:31.962Z,38.55
2022-09-02T16:34:37.579Z,38.85
2022-09-02T16:37:43.135Z,38.91
2022-09-02T16:40:57.730Z,39.44
2022-09-02T16:44:11.922Z,39.11
2022-09-02T16:47:17.509Z,39.96
2022-09-02T16:50:23.570Z,40.01
2022-09-02T16:53:29.349Z,40.29
2022-09-02T16:56:43.420Z,40.86
2022-09-02T16:59:49.633Z,40.61
2022-09-02T17:02:55.292Z,41.19
2022-09-02T17:06:01.693Z,41.26
2022-09-02T17:09:09.199Z,41.80
2022-09-02T17:12:28.434Z,42.22
2022-09-02T17:15:36.803Z,42.18
2022-09-02T17:18:42.369Z,42.51
2022-09-02T17:21:51.179Z,43.24
2022-09-02T17:24:56.758Z,43.85
2022-09-02T17:28:05.813Z,44.29
2022-09-02T17:31:22.048Z,44.53
2022-09-02T17:34:27.802Z,44.70
2022-09-02T17:37:37.592Z,45.30
2022-09-02T17:40:55.685Z,44.59
2022-09-02T17:44:08.277Z,44.88
2022-09-02T17:47:20.229Z,44.74
2022-09-02T17:50:29.295Z,45.06
2022-09-02T17:53:36.363Z,44.99
2022-09-02T17:57:23.862Z,45.93
2022-09-02T18:00:32.376Z,46.16
2022-09-02T18:04:07.778Z,46.15
2022-09-02T18:07:34.275Z,46.12
2022-09-02T18:10:58.065Z,46.10
2022-09-02T18:14:25.673Z,46.14
2022-09-02T18:17:40.045Z,46.74
2022-09-02T18:20:56.813Z,46.78
2022-09-02T18:24:27.870Z,46.97
2022-09-02T18:27:53.711Z,46.91
2022-09-02T18:31:23.412Z,47.66
2022-09-02T18:34:57.750Z,48.01
2022-09-02T18:38:17.058Z,48.18
2022-09-02T18:41:52.370Z,47.24
2022-09-02T18:45:12.693Z,47.11
2022-09-02T18:48:27.585Z,47.41
2022-09-02T18:51:49.395Z,47.37
2022-09-02T18:55:15.374Z,47.34
2022-09-02T18:58:39.297Z,47.96
2022-09-02T19:01:56.588Z,48.26
2022-09-02T19:05:07.372Z,48.13
2022-09-02T19:08:40.630Z,48.52
2022-09-02T19:11:48.410Z,48.67
2022-09-02T19:14:54.339Z,49.03
2022-09-02T19:18:20.853Z,48.97
2022-09-02T19:22:04.821Z,49.10
2022-09-02T19:25:29.214Z,48.98
2022-09-02T19:28:35.301Z,49.48
2022-09-02T19:31:46.863Z,49.75
2022-09-02T19:34:53.144Z,49.49
2022-09-02T19:37:59.603Z,49.51
2022-09-02T19:41:08.191Z,50.05
2022-09-02T19:44:15.743Z,49.63
2022-09-02T19:48:05.023Z,49.80
2022-09-02T19:50:51.109Z,50.29
2022-09-02T19:53:57.354Z,50.12
2022-09-02T19:57:05.721Z,50.38
2022-09-02T20:00:15.611Z,51.17
2022-09-02T20:03:22.809Z,51.10
2022-09-02T20:06:30.009Z,51.18
2022-09-02T20:09:35.739Z,51.41
2022-09-02T20:12:51.075Z,51.23
2022-09-02T20:16:00.278Z,51.33
2022-09-02T20:19:06.104Z,51.54
2022-09-02T20:22:14.331Z,51.26
2022-09-02T20:25:20.099Z,51.36
2022-09-02T20:28:36.821Z,51.60
2022-09-02T20:32:09.119Z,51.04
2022-09-02T20:35:53.491Z,50.64
2022-09-02T20:39:35.316Z,51.15
2022-09-02T20:43:38.147Z,50.51
2022-09-02T20:47:16.605Z,50.78
2022-09-02T20:50:50.620Z,50.51
2022-09-02T20:54:20.138Z,50.46
2022-09-02T20:58:13.682Z,50.26
2022-09-02T21:01:31.151Z,50.65
2022-09-02T21:04:45.016Z,50.42
2022-09-02T21:08:02.726Z,51.22
2022-09-02T21:11:14.597Z,51.09
2022-09-02T21:14:31.155Z,50.99
2022-09-02T21:17:52.509Z,50.95
2022-09-02T21:21:09.851Z,51.47
2022-09-02T21:24:26.349Z,51.35
2022-09-02T21:27:45.467Z,51.54
2022-09-02T21:31:05.143Z,51.49
2022-09-02T21:34:27.790Z,51.78
2022-09-02T21:37:39.926Z,51.72
2022-09-02T21:41:07.009Z,51.93
2022-09-02T21:44:26.161Z,52.05
2022-09-02T21:47:44.181Z,52.06
2022-09-02T21:51:05.043Z,51.97
2022-09-02T21:54:44.575Z,52.07
2022-09-02T21:58:17.933Z,51.74
2022-09-02T22:01:44.558Z,52.28
2022-09-02T22:05:10.534Z,52.23
2022-09-02T22:08:34.183Z,51.99
2022-09-02T22:11:48.957Z,52.06
2022-09-02T22:15:08.001Z,52.08
2022-09-02T22:18:33.645Z,52.14
2022-09-02T22:21:49.988Z,52.18
2022-09-02T22:24:58.572Z,52.40
2022-09-02T22:28:16.045Z,52.58
2022-09-02T22:31:28.696Z,53.82
2022-09-02T22:34:46.384Z,53.70
2022-09-02T22:38:06.228Z,53.14
2022-09-02T22:41:29.251Z,54.00
2022-09-02T22:44:59.291Z,53.51
2022-09-02T22:48:30.857Z,53.63
2022-09-02T22:52:03.160Z,53.63
2022-09-02T22:55:11.374Z,53.44
2022-09-02T22:58:48.906Z,53.57
2022-09-02T23:02:11.441Z,53.85
2022-09-02T23:05:53.303Z,53.16
2022-09-02T23:09:08.670Z,52.96
2022-09-02T23:12:34.485Z,52.75
2022-09-02T23:16:02.369Z,53.11
2022-09-02T23:19:25.986Z,52.85
2022-09-02T23:22:51.683Z,52.99
2022-09-02T23:26:21.067Z,52.89
2022-09-02T23:29:28.923Z,52.57
2022-09-02T23:33:10.965Z,52.92
2022-09-02T23:36:35.526Z,52.90
2022-09-02T23:40:06.219Z,52.93
2022-09-02T23:43:15.736Z,52.80
2022-09-02T23:46:43.952Z,53.20
2022-09-02T23:50:11.604Z,52.95
2022-09-02T23:53:27.604Z,53.17
2022-09-02T23:56:58.283Z,53.26
